DW3588 Weather Reports


Display with metric or nautical units.
time (UTC)temp
F
wind
direction
speed
MPH
gust
MPH
rain 1hr
in
rain 24hr
in
rain mn
in
humidity
%
barometer
mb
20210621142439 63 44 0.0 3.0 0.00 0.00 0.00 71 1009.5
20210621140940 61 44 0.0 0.0 0.00 0.00 0.00 73 1009.5
20210621135438 60 44 0.0 0.0 0.00 0.00 0.00 75 1009.3
20210621133935 59 44 0.0 2.0 0.00 0.00 0.00 77 1009.3
20210621132438 59 44 1.0 3.0 0.00 0.00 0.00 78 1009.0
20210621130916 59 38 0.0 0.0 0.00 0.00 0.00 76 1008.8
20210621125414 60 38 0.0 0.0 0.00 0.00 0.00 75 1008.5
20210621123916 60 38 0.0 0.0 0.00 0.00 0.00 75 1008.5
20210621122416 60 38 0.0 0.0 0.00 0.00 0.00 75 1008.2
20210621120912 60 37 0.0 0.0 0.00 0.00 0.00 74 1008.1
20210621115414 60 38 0.0 0.0 0.00 0.00 0.00 74 1008.0
20210621113912 60 38 0.0 0.0 0.00 0.00 0.00 74 1008.1
20210621112410 61 38 0.0 0.0 0.00 0.00 0.00 73 1008.0
20210621110910 61 38 0.0 2.0 0.00 0.00 0.00 73 1008.0
20210621105405 62 38 0.0 3.0 0.00 0.00 0.00 70 1007.9
20210621103906 62 37 1.0 3.0 0.00 0.00 0.00 71 1007.7
20210621102407 62 36 1.0 2.0 0.00 0.00 0.00 71 1007.7
20210621100906 62 36 0.0 0.0 0.00 0.00 0.00 71 1007.8
20210621095402 62 36 0.0 0.0 0.00 0.00 0.00 71 1007.8
20210621093858 62 36 0.0 3.0 0.00 0.00 0.00 71 1007.7
20210621092358 63 36 1.0 3.0 0.00 0.00 0.00 70 1007.6
20210621090858 63 36 1.0 4.0 0.00 0.00 0.00 69 1007.6
20210621085356 64 19 1.0 2.0 0.00 0.00 0.00 66 1007.5
20210621083856 65 19 0.0 2.0 0.00 0.00 0.00 64 1007.5
20210621082356 65 17 1.0 2.0 0.00 0.00 0.00 64 1007.4
20210621080857 66 17 1.0 2.0 0.00 0.00 0.00 63 1007.3
20210621075357 67 17 1.0 3.0 0.00 0.00 0.00 63 1007.2
20210621073855 68 17 1.0 3.0 0.00 0.00 0.00 60 1007.4
20210621072354 69 15 1.0 3.0 0.00 0.00 0.00 59 1007.1
20210621070851 69 15 1.0 3.0 0.00 0.00 0.00 59 1007.3
20210621065353 70 15 1.0 3.0 0.00 0.00 0.00 57 1007.2
20210621063849 69 15 2.0 4.0 0.00 0.00 0.00 57 1007.2
20210621062348 70 15 2.0 4.0 0.00 0.00 0.00 57 1007.4
20210621060846 72 14 2.0 5.0 0.00 0.00 0.00 54 1007.3
20210621055346 72 341 1.0 2.0 0.00 0.00 0.00 54 1007.3
20210621053848 73 340 1.0 3.0 0.00 0.00 0.00 52 1007.1
20210621052348 73 340 1.0 5.0 0.00 0.00 0.00 52 1007.1
20210621050846 74 326 3.0 6.0 0.00 0.00 0.00 51 1007.0
20210621045343 74 355 3.0 9.0 0.00 0.00 0.00 48 1006.8
20210621043843 75 340 4.0 9.0 0.00 0.00 0.00 46 1006.5
20210621042340 77 0 4.0 8.0 0.00 0.00 0.00 45 1006.3
20210621040840 78 31 4.0 9.0 0.00 0.00 0.00 44 1006.1
20210621035339 80 20 3.0 6.0 0.00 0.00 0.00 41 1005.9
20210621033836 82 5 3.0 9.0 0.00 0.00 0.00 37 1005.7
20210621032335 84 0 6.0 11.0 0.00 0.00 0.00 36 1005.6
20210621030834 85 5 3.0 8.0 0.00 0.00 0.00 34 1005.5
20210621025335 87 286 5.0 12.0 0.00 0.00 0.00 31 1005.5
20210621023835 87 355 5.0 11.0 0.00 0.00 0.00 30 1005.4
20210621022331 88 0 5.0 14.0 0.00 0.00 0.00 29 1005.1
20210621020829 90 0 6.0 12.0 0.00 0.00 0.00 27 1005.0
20210621015329 91 355 5.0 10.0 0.00 0.00 0.00 27 1004.9
20210621013830 93 355 5.0 13.0 0.00 0.00 0.00 26 1004.8
20210621012330 94 76 6.0 12.0 0.00 0.00 0.00 25 1004.8
20210621010829 98 100 3.0 9.0 0.00 0.00 0.00 22 1004.7
20210621005330 100 273 5.0 11.0 0.00 0.00 0.00 18 1004.6
20210621003827 100 261 4.0 10.0 0.00 0.00 0.00 16 1004.9
20210621002328 101 281 5.0 10.0 0.00 0.00 0.00 14 1004.8
20210621000828 102 290 4.0 12.0 0.00 0.00 0.00 13 1005.0
20210620235329 101 36 4.0 10.0 0.00 0.00 0.00 21 1005.0
20210620233826 102 73 5.0 10.0 0.00 0.00 0.00 21 1005.0
20210620232325 101 30 3.0 10.0 0.00 0.00 0.00 23 1005.3
20210620230824 102 63 3.0 7.0 0.00 0.00 0.00 22 1005.4
20210620225321 102 103 4.0 8.0 0.00 0.00 0.00 25 1005.5
20210620223818 101 72 3.0 7.0 0.00 0.00 0.00 26 1005.7
20210620222317 102 65 4.0 8.0 0.00 0.00 0.00 25 1005.8
20210620220811 101 50 4.0 10.0 0.00 0.00 0.00 25 1006.0
20210620215312 100 13 4.0 9.0 0.00 0.00 0.00 26 1006.1
20210620213811 101 51 5.0 12.0 0.00 0.00 0.00 26 1006.2
20210620212311 100 74 4.0 9.0 0.00 0.00 0.00 27 1006.4
20210620210810 100 51 5.0 10.0 0.00 0.00 0.00 27 1006.4
20210620205311 98 56 3.0 9.0 0.00 0.00 0.00 30 1006.5
20210620203807 96 346 3.0 6.0 0.00 0.00 0.00 31 1006.6
20210620202308 95 13 4.0 10.0 0.00 0.00 0.00 31 1006.8
20210620200809 96 75 4.0 9.0 0.00 0.00 0.00 30 1006.8
20210620195310 95 78 4.0 10.0 0.00 0.00 0.00 32 1006.9
20210620193809 94 39 4.0 8.0 0.00 0.00 0.00 32 1007.0
20210620192308 93 89 3.0 7.0 0.00 0.00 0.00 34 1007.1
20210620190809 92 48 3.0 9.0 0.00 0.00 0.00 36 1007.2
20210620185308 90 338 3.0 8.0 0.00 0.00 0.00 36 1007.2
20210620183808 90 41 4.0 9.0 0.00 0.00 0.00 37 1007.2
20210620182309 88 60 2.0 7.0 0.00 0.00 0.00 38 1007.1
20210620180801 88 82 2.0 7.0 0.00 0.00 0.00 39 1007.0
20210620175301 86 101 2.0 7.0 0.00 0.00 0.00 38 1007.0
20210620173804 85 107 2.0 6.0 0.00 0.00 0.00 42 1007.1
20210620172305 84 55 2.0 4.0 0.00 0.00 0.00 43 1007.1
20210620170804 82 51 2.0 4.0 0.00 0.00 0.00 44 1007.1
20210620165305 81 16 2.0 4.0 0.00 0.00 0.00 45 1007.1
20210620163803 80 5 1.0 4.0 0.00 0.00 0.00 48 1007.2
20210620162305 78 9 2.0 3.0 0.00 0.00 0.00 51 1007.0
20210620160803 77 0 2.0 4.0 0.00 0.00 0.00 49 1006.9
20210620155305 75 355 2.0 4.0 0.00 0.00 0.00 52 1006.8
20210620153759 73 350 1.0 3.0 0.00 0.00 0.00 55 1006.7
20210620152257 71 350 1.0 3.0 0.00 0.00 0.00 56 1006.6
20210620150752 70 348 1.0 4.0 0.00 0.00 0.00 60 1006.5
20210620145252 67 344 1.0 3.0 0.00 0.00 0.00 63 1006.5
20210620143749 66 344 2.0 4.0 0.00 0.00 0.00 65 1006.4